North Little Rock, AR (72119)

12:29 PM CST on January 30, 2015 (GMT -0600)
APRSWXNET North Little Rock AR US | Change Station
CLOSE
Current Station
Personal Weather Station
Location: Sherwood, AR
Elevation: 498 ft
Nearby Weather Stations

Elev 498 ft 34.82 °N, 92.25 °W | Updated 35 minutes ago

Mostly Cloudy
Mostly Cloudy
46 °F
Feels Like 46 °F
N
1
Wind Variable Wind from East
Gusts 5.0 mph

Today
High -- | Low -- °F
--% Chance of Precip.
Yesterday
High -- | Low -- °F
Precip. -- in
7:08 AM 5:36 PM
Waxing Gibbous, 84% visible
Pressure 30.53 in
Visibility 10.0 miles
Clouds Scattered Clouds 15000 ft
Mostly Cloudy 25000 ft
Windchill 46 °F
Dew Point 29 °F
Humidity 51%
Rainfall 0.00 in
Snow Depth Not available.
UV 2 out of 12
Pollen 5.20 out of 12
Air Quality Not available.
Flu Activity Not available.
METAR KLIT 301753Z 04004KT 10SM SCT150 BKN250 08/M03 A3052 RMK AO2 SLP339 T00831033 10083 20000 58007

More Conditions Fewer Conditions

Pressure 30.53 in
Visibility 10.0 miles
Clouds Scattered Clouds 15000 ft
Mostly Cloudy 25000 ft
Windchill 46 °F
Dew Point 29 °F
Humidity 51%
Rainfall 0.00 in
Snow Depth Not available.
UV 2 out of 12
Pollen 5.20 out of 12
Air Quality Not available.
Flu Activity Not available.
METAR KLIT 301753Z 04004KT 10SM SCT150 BKN250 08/M03 A3052 RMK AO2 SLP339 T00831033 10083 20000 58007

More Conditions Fewer Conditions

10-Day Weather Forecast

Almanac

Astronomy

Jan. 30, 2015 Rise Set
Actual Time
Civil Twilight
Nautical Twilight
Astronomical Twilight
Moon
Length of Visible Light
Length of Day
Tomorrow will be .
, % of the Moon is Illuminated

Today's Extremes

State Highs State Lows

Community

WunderPhotos

Upload Photos

1,791,854 photos uploaded!

WunderBlogs® & News

Nearby

Air Quality

  Air Quality AQ Index Pollutant
Not available.

Snow Depth

Station Depth Elevation

Earthquake Activity

City Distance Mag. Time & Date
Minimum magnitude displayed is 2.5.

Coastal Water Temperatures

Place Temperature

Nearby Weather Stations